sensor_id;sensor_type;location;lat;lon;timestamp;P1;durP1;ratioP1;P2;durP2;ratioP2
6121;SDS011;3091;51.506;7.672;2023-05-29T00:01:25;16.77;;;16.27;;
6121;SDS011;3091;51.506;7.672;2023-05-29T00:03:51;17.30;;;16.70;;
6121;SDS011;3091;51.506;7.672;2023-05-29T00:06:20;16.77;;;16.27;;
6121;SDS011;3091;51.506;7.672;2023-05-29T00:08:49;17.40;;;16.80;;
6121;SDS011;3091;51.506;7.672;2023-05-29T00:11:15;17.70;;;17.10;;
6121;SDS011;3091;51.506;7.672;2023-05-29T00:13:41;18.10;;;17.40;;
6121;SDS011;3091;51.506;7.672;2023-05-29T00:16:07;18.33;;;17.63;;
6121;SDS011;3091;51.506;7.672;2023-05-29T00:18:34;17.80;;;17.20;;
6121;SDS011;3091;51.506;7.672;2023-05-29T00:21:00;18.17;;;17.47;;
6121;SDS011;3091;51.506;7.672;2023-05-29T00:23:26;18.07;;;17.37;;
6121;SDS011;3091;51.506;7.672;2023-05-29T00:25:52;18.53;;;17.83;;
6121;SDS011;3091;51.506;7.672;2023-05-29T00:28:18;17.90;;;17.20;;
6121;SDS011;3091;51.506;7.672;2023-05-29T00:30:45;18.00;;;17.30;;
6121;SDS011;3091;51.506;7.672;2023-05-29T00:33:11;18.50;;;17.80;;
6121;SDS011;3091;51.506;7.672;2023-05-29T00:35:37;18.90;;;18.20;;
6121;SDS011;3091;51.506;7.672;2023-05-29T00:38:03;19.57;;;18.77;;
6121;SDS011;3091;51.506;7.672;2023-05-29T00:40:29;19.10;;;18.40;;
6121;SDS011;3091;51.506;7.672;2023-05-29T00:42:55;18.53;;;17.90;;
6121;SDS011;3091;51.506;7.672;2023-05-29T00:45:21;18.40;;;17.80;;
6121;SDS011;3091;51.506;7.672;2023-05-29T00:47:47;18.40;;;17.80;;
6121;SDS011;3091;51.506;7.672;2023-05-29T00:50:13;18.50;;;17.90;;
6121;SDS011;3091;51.506;7.672;2023-05-29T00:52:43;17.40;;;16.70;;
6121;SDS011;3091;51.506;7.672;2023-05-29T00:55:10;17.13;;;16.43;;
6121;SDS011;3091;51.506;7.672;2023-05-29T00:57:36;17.53;;;16.83;;
6121;SDS011;3091;51.506;7.672;2023-05-29T01:00:04;17.10;;;16.40;;
6121;SDS011;3091;51.506;7.672;2023-05-29T01:02:37;18.33;;;17.17;;
6121;SDS011;3091;51.506;7.672;2023-05-29T01:05:03;17.27;;;16.60;;
6121;SDS011;3091;51.506;7.672;2023-05-29T01:07:30;17.40;;;16.70;;
6121;SDS011;3091;51.506;7.672;2023-05-29T01:09:57;17.77;;;17.07;;
6121;SDS011;3091;51.506;7.672;2023-05-29T01:12:26;16.50;;;15.90;;
6121;SDS011;3091;51.506;7.672;2023-05-29T01:17:43;16.70;;;16.10;;
6121;SDS011;3091;51.506;7.672;2023-05-29T01:28:01;16.97;;;16.37;;
6121;SDS011;3091;51.506;7.672;2023-05-29T01:30:30;15.90;;;15.40;;
6121;SDS011;3091;51.506;7.672;2023-05-29T01:32:58;15.80;;;15.30;;
6121;SDS011;3091;51.506;7.672;2023-05-29T01:35:24;16.40;;;15.80;;
6121;SDS011;3091;51.506;7.672;2023-05-29T01:37:50;15.93;;;15.30;;
6121;SDS011;3091;51.506;7.672;2023-05-29T01:40:17;16.60;;;16.00;;
6121;SDS011;3091;51.506;7.672;2023-05-29T01:42:43;16.17;;;15.57;;
6121;SDS011;3091;51.506;7.672;2023-05-29T01:45:09;16.30;;;15.70;;
6121;SDS011;3091;51.506;7.672;2023-05-29T01:47:36;16.03;;;15.43;;
6121;SDS011;3091;51.506;7.672;2023-05-29T01:50:03;15.80;;;15.20;;
6121;SDS011;3091;51.506;7.672;2023-05-29T01:52:29;15.50;;;14.90;;
6121;SDS011;3091;51.506;7.672;2023-05-29T01:54:55;15.87;;;15.27;;
6121;SDS011;3091;51.506;7.672;2023-05-29T01:57:21;16.53;;;15.83;;
6121;SDS011;3091;51.506;7.672;2023-05-29T01:59:47;17.37;;;16.67;;
6121;SDS011;3091;51.506;7.672;2023-05-29T02:02:14;16.37;;;15.67;;
6121;SDS011;3091;51.506;7.672;2023-05-29T02:04:40;16.50;;;15.90;;
6121;SDS011;3091;51.506;7.672;2023-05-29T02:07:06;16.73;;;16.07;;
6121;SDS011;3091;51.506;7.672;2023-05-29T02:09:32;17.17;;;16.53;;
6121;SDS011;3091;51.506;7.672;2023-05-29T02:11:58;22.30;;;19.63;;
6121;SDS011;3091;51.506;7.672;2023-05-29T02:14:25;15.87;;;15.37;;
6121;SDS011;3091;51.506;7.672;2023-05-29T02:16:51;15.70;;;15.20;;
6121;SDS011;3091;51.506;7.672;2023-05-29T02:19:18;16.00;;;15.50;;
6121;SDS011;3091;51.506;7.672;2023-05-29T02:21:44;15.80;;;15.30;;
6121;SDS011;3091;51.506;7.672;2023-05-29T02:24:10;16.90;;;16.30;;
6121;SDS011;3091;51.506;7.672;2023-05-29T02:26:36;16.70;;;16.10;;
6121;SDS011;3091;51.506;7.672;2023-05-29T02:29:02;17.03;;;16.33;;
6121;SDS011;3091;51.506;7.672;2023-05-29T02:31:30;18.03;;;16.50;;
6121;SDS011;3091;51.506;7.672;2023-05-29T02:33:56;16.40;;;15.80;;
6121;SDS011;3091;51.506;7.672;2023-05-29T02:36:22;17.10;;;16.40;;
6121;SDS011;3091;51.506;7.672;2023-05-29T02:38:49;17.40;;;16.80;;
6121;SDS011;3091;51.506;7.672;2023-05-29T02:41:17;15.90;;;15.40;;
6121;SDS011;3091;51.506;7.672;2023-05-29T02:43:43;16.10;;;15.60;;
6121;SDS011;3091;51.506;7.672;2023-05-29T02:46:09;16.10;;;15.60;;
6121;SDS011;3091;51.506;7.672;2023-05-29T02:48:35;15.90;;;15.40;;
6121;SDS011;3091;51.506;7.672;2023-05-29T02:51:01;17.60;;;16.80;;
6121;SDS011;3091;51.506;7.672;2023-05-29T02:53:27;16.90;;;16.30;;
6121;SDS011;3091;51.506;7.672;2023-05-29T02:55:53;16.50;;;15.90;;
6121;SDS011;3091;51.506;7.672;2023-05-29T02:58:19;17.03;;;16.43;;
6121;SDS011;3091;51.506;7.672;2023-05-29T03:00:46;16.20;;;15.60;;
6121;SDS011;3091;51.506;7.672;2023-05-29T03:03:12;16.60;;;16.00;;
6121;SDS011;3091;51.506;7.672;2023-05-29T03:05:38;16.60;;;16.00;;
6121;SDS011;3091;51.506;7.672;2023-05-29T03:08:04;16.23;;;15.63;;
6121;SDS011;3091;51.506;7.672;2023-05-29T03:10:31;16.40;;;15.80;;
6121;SDS011;3091;51.506;7.672;2023-05-29T03:12:59;16.20;;;15.60;;
6121;SDS011;3091;51.506;7.672;2023-05-29T03:15:25;16.07;;;15.47;;
6121;SDS011;3091;51.506;7.672;2023-05-29T03:17:51;16.10;;;15.50;;
6121;SDS011;3091;51.506;7.672;2023-05-29T03:20:19;15.97;;;15.37;;
6121;SDS011;3091;51.506;7.672;2023-05-29T03:22:45;16.00;;;15.40;;
6121;SDS011;3091;51.506;7.672;2023-05-29T03:25:11;16.43;;;15.77;;
6121;SDS011;3091;51.506;7.672;2023-05-29T03:27:37;16.90;;;16.20;;
6121;SDS011;3091;51.506;7.672;2023-05-29T03:30:04;17.53;;;16.90;;
6121;SDS011;3091;51.506;7.672;2023-05-29T03:32:30;16.80;;;16.20;;
6121;SDS011;3091;51.506;7.672;2023-05-29T03:34:56;16.80;;;16.20;;
6121;SDS011;3091;51.506;7.672;2023-05-29T03:37:22;16.80;;;16.20;;
6121;SDS011;3091;51.506;7.672;2023-05-29T03:39:48;16.70;;;16.10;;
6121;SDS011;3091;51.506;7.672;2023-05-29T03:42:14;16.80;;;16.20;;
6121;SDS011;3091;51.506;7.672;2023-05-29T03:44:41;16.40;;;15.73;;
6121;SDS011;3091;51.506;7.672;2023-05-29T03:47:07;16.30;;;15.70;;
6121;SDS011;3091;51.506;7.672;2023-05-29T03:49:34;16.27;;;15.67;;
6121;SDS011;3091;51.506;7.672;2023-05-29T03:52:00;15.90;;;15.30;;
6121;SDS011;3091;51.506;7.672;2023-05-29T03:54:26;16.20;;;15.60;;
6121;SDS011;3091;51.506;7.672;2023-05-29T03:56:52;16.23;;;15.63;;
6121;SDS011;3091;51.506;7.672;2023-05-29T03:59:17;16.00;;;15.40;;
6121;SDS011;3091;51.506;7.672;2023-05-29T04:01:43;16.50;;;15.80;;
6121;SDS011;3091;51.506;7.672;2023-05-29T04:04:10;16.30;;;15.70;;
6121;SDS011;3091;51.506;7.672;2023-05-29T04:06:36;16.20;;;15.60;;
6121;SDS011;3091;51.506;7.672;2023-05-29T04:09:03;17.70;;;16.90;;
6121;SDS011;3091;51.506;7.672;2023-05-29T04:11:31;16.40;;;15.80;;
6121;SDS011;3091;51.506;7.672;2023-05-29T04:13:59;16.10;;;15.50;;
6121;SDS011;3091;51.506;7.672;2023-05-29T04:16:25;16.43;;;15.83;;
6121;SDS011;3091;51.506;7.672;2023-05-29T04:18:51;16.47;;;15.87;;
6121;SDS011;3091;51.506;7.672;2023-05-29T04:21:17;16.30;;;15.70;;
6121;SDS011;3091;51.506;7.672;2023-05-29T04:23:43;16.00;;;15.40;;
6121;SDS011;3091;51.506;7.672;2023-05-29T04:26:09;15.90;;;15.30;;
6121;SDS011;3091;51.506;7.672;2023-05-29T04:28:35;16.17;;;15.57;;
6121;SDS011;3091;51.506;7.672;2023-05-29T04:31:02;16.20;;;15.60;;
6121;SDS011;3091;51.506;7.672;2023-05-29T04:33:28;16.00;;;15.40;;
6121;SDS011;3091;51.506;7.672;2023-05-29T04:35:54;15.80;;;15.20;;
6121;SDS011;3091;51.506;7.672;2023-05-29T04:38:20;16.13;;;15.53;;
6121;SDS011;3091;51.506;7.672;2023-05-29T04:40:50;15.70;;;15.20;;
6121;SDS011;3091;51.506;7.672;2023-05-29T04:43:17;16.30;;;15.70;;
6121;SDS011;3091;51.506;7.672;2023-05-29T04:45:43;16.23;;;15.63;;
6121;SDS011;3091;51.506;7.672;2023-05-29T04:48:11;14.83;;;14.37;;
6121;SDS011;3091;51.506;7.672;2023-05-29T04:50:37;13.77;;;13.37;;
6121;SDS011;3091;51.506;7.672;2023-05-29T04:53:03;13.47;;;13.07;;
6121;SDS011;3091;51.506;7.672;2023-05-29T04:55:29;11.97;;;11.67;;
6121;SDS011;3091;51.506;7.672;2023-05-29T04:57:55;12.23;;;11.83;;
6121;SDS011;3091;51.506;7.672;2023-05-29T05:00:22;10.77;;;10.47;;
6121;SDS011;3091;51.506;7.672;2023-05-29T05:02:49;11.40;;;11.10;;
6121;SDS011;3091;51.506;7.672;2023-05-29T05:05:15;12.60;;;12.20;;
6121;SDS011;3091;51.506;7.672;2023-05-29T05:07:41;12.50;;;12.10;;
6121;SDS011;3091;51.506;7.672;2023-05-29T05:10:07;11.90;;;11.50;;
6121;SDS011;3091;51.506;7.672;2023-05-29T05:12:34;12.20;;;11.80;;
6121;SDS011;3091;51.506;7.672;2023-05-29T05:15:00;12.30;;;11.90;;
6121;SDS011;3091;51.506;7.672;2023-05-29T05:17:26;15.20;;;14.37;;
6121;SDS011;3091;51.506;7.672;2023-05-29T05:19:52;11.80;;;11.40;;
6121;SDS011;3091;51.506;7.672;2023-05-29T05:22:18;13.00;;;12.50;;
6121;SDS011;3091;51.506;7.672;2023-05-29T05:24:44;12.97;;;12.53;;
6121;SDS011;3091;51.506;7.672;2023-05-29T05:27:10;10.20;;;9.90;;
6121;SDS011;3091;51.506;7.672;2023-05-29T05:29:36;11.30;;;10.80;;
6121;SDS011;3091;51.506;7.672;2023-05-29T05:32:05;9.60;;;9.30;;
6121;SDS011;3091;51.506;7.672;2023-05-29T05:34:31;9.50;;;9.20;;
6121;SDS011;3091;51.506;7.672;2023-05-29T05:36:57;10.60;;;10.30;;
6121;SDS011;3091;51.506;7.672;2023-05-29T05:39:23;10.10;;;9.80;;
6121;SDS011;3091;51.506;7.672;2023-05-29T05:41:50;12.17;;;11.67;;
6121;SDS011;3091;51.506;7.672;2023-05-29T05:44:16;11.70;;;11.30;;
6121;SDS011;3091;51.506;7.672;2023-05-29T05:46:42;11.50;;;11.10;;
6121;SDS011;3091;51.506;7.672;2023-05-29T05:49:08;11.80;;;11.40;;
6121;SDS011;3091;51.506;7.672;2023-05-29T05:51:34;12.30;;;11.80;;
6121;SDS011;3091;51.506;7.672;2023-05-29T05:54:00;11.40;;;11.00;;
6121;SDS011;3091;51.506;7.672;2023-05-29T05:56:26;11.13;;;10.77;;
6121;SDS011;3091;51.506;7.672;2023-05-29T05:58:52;11.77;;;11.37;;
6121;SDS011;3091;51.506;7.672;2023-05-29T06:01:18;11.13;;;10.73;;
6121;SDS011;3091;51.506;7.672;2023-05-29T06:03:44;9.63;;;9.33;;
6121;SDS011;3091;51.506;7.672;2023-05-29T06:06:10;10.20;;;9.80;;
6121;SDS011;3091;51.506;7.672;2023-05-29T06:08:36;9.63;;;9.33;;
6121;SDS011;3091;51.506;7.672;2023-05-29T06:11:03;10.03;;;9.60;;
6121;SDS011;3091;51.506;7.672;2023-05-29T06:13:29;10.27;;;9.97;;
6121;SDS011;3091;51.506;7.672;2023-05-29T06:15:55;10.50;;;10.20;;
6121;SDS011;3091;51.506;7.672;2023-05-29T06:18:21;12.70;;;12.20;;
6121;SDS011;3091;51.506;7.672;2023-05-29T06:20:48;11.90;;;11.50;;
6121;SDS011;3091;51.506;7.672;2023-05-29T06:23:17;11.50;;;11.10;;
6121;SDS011;3091;51.506;7.672;2023-05-29T06:25:43;11.50;;;11.10;;
6121;SDS011;3091;51.506;7.672;2023-05-29T06:28:09;12.37;;;11.87;;
6121;SDS011;3091;51.506;7.672;2023-05-29T06:30:35;11.50;;;11.10;;
6121;SDS011;3091;51.506;7.672;2023-05-29T06:33:01;11.83;;;11.43;;
6121;SDS011;3091;51.506;7.672;2023-05-29T06:35:27;12.83;;;12.27;;
6121;SDS011;3091;51.506;7.672;2023-05-29T06:37:53;11.57;;;11.17;;
6121;SDS011;3091;51.506;7.672;2023-05-29T06:40:19;11.50;;;11.10;;
6121;SDS011;3091;51.506;7.672;2023-05-29T06:42:46;11.17;;;10.87;;
6121;SDS011;3091;51.506;7.672;2023-05-29T06:45:12;10.40;;;10.10;;
6121;SDS011;3091;51.506;7.672;2023-05-29T06:47:41;11.13;;;10.83;;
6121;SDS011;3091;51.506;7.672;2023-05-29T06:50:08;11.07;;;10.77;;
6121;SDS011;3091;51.506;7.672;2023-05-29T06:52:34;11.37;;;10.97;;
6121;SDS011;3091;51.506;7.672;2023-05-29T06:55:01;10.50;;;10.20;;
6121;SDS011;3091;51.506;7.672;2023-05-29T06:57:27;10.73;;;10.40;;
6121;SDS011;3091;51.506;7.672;2023-05-29T06:59:53;11.63;;;11.13;;
6121;SDS011;3091;51.506;7.672;2023-05-29T07:02:20;10.37;;;10.07;;
6121;SDS011;3091;51.506;7.672;2023-05-29T07:04:46;10.37;;;10.07;;
6121;SDS011;3091;51.506;7.672;2023-05-29T07:07:12;10.50;;;10.20;;
6121;SDS011;3091;51.506;7.672;2023-05-29T07:09:38;11.40;;;11.00;;
6121;SDS011;3091;51.506;7.672;2023-05-29T07:12:04;11.80;;;11.40;;
6121;SDS011;3091;51.506;7.672;2023-05-29T07:14:30;11.60;;;11.20;;
6121;SDS011;3091;51.506;7.672;2023-05-29T07:16:56;12.83;;;12.03;;
6121;SDS011;3091;51.506;7.672;2023-05-29T07:19:22;12.03;;;11.63;;
6121;SDS011;3091;51.506;7.672;2023-05-29T07:21:48;11.50;;;11.10;;
6121;SDS011;3091;51.506;7.672;2023-05-29T07:24:14;11.73;;;11.33;;
6121;SDS011;3091;51.506;7.672;2023-05-29T07:26:40;12.47;;;11.97;;
6121;SDS011;3091;51.506;7.672;2023-05-29T07:29:06;11.70;;;11.30;;
6121;SDS011;3091;51.506;7.672;2023-05-29T07:31:32;12.73;;;11.90;;
6121;SDS011;3091;51.506;7.672;2023-05-29T07:33:58;11.50;;;11.10;;
6121;SDS011;3091;51.506;7.672;2023-05-29T07:36:29;11.80;;;11.40;;
6121;SDS011;3091;51.506;7.672;2023-05-29T07:38:59;12.00;;;11.60;;
6121;SDS011;3091;51.506;7.672;2023-05-29T07:41:25;11.87;;;11.47;;
6121;SDS011;3091;51.506;7.672;2023-05-29T07:43:51;11.63;;;11.23;;
6121;SDS011;3091;51.506;7.672;2023-05-29T07:46:18;11.80;;;11.40;;
6121;SDS011;3091;51.506;7.672;2023-05-29T07:48:44;11.23;;;10.83;;
6121;SDS011;3091;51.506;7.672;2023-05-29T07:51:13;10.60;;;10.20;;
6121;SDS011;3091;51.506;7.672;2023-05-29T07:53:39;10.60;;;10.00;;
6121;SDS011;3091;51.506;7.672;2023-05-29T07:56:05;9.80;;;9.40;;
6121;SDS011;3091;51.506;7.672;2023-05-29T07:58:31;10.00;;;9.70;;
6121;SDS011;3091;51.506;7.672;2023-05-29T08:00:58;9.60;;;9.30;;
6121;SDS011;3091;51.506;7.672;2023-05-29T08:03:24;10.20;;;9.90;;
6121;SDS011;3091;51.506;7.672;2023-05-29T08:05:50;11.60;;;11.20;;
6121;SDS011;3091;51.506;7.672;2023-05-29T08:08:16;11.50;;;11.10;;
6121;SDS011;3091;51.506;7.672;2023-05-29T08:10:44;11.60;;;11.20;;
6121;SDS011;3091;51.506;7.672;2023-05-29T08:13:10;11.70;;;11.30;;
6121;SDS011;3091;51.506;7.672;2023-05-29T08:15:36;10.90;;;10.60;;
6121;SDS011;3091;51.506;7.672;2023-05-29T08:18:02;10.83;;;10.17;;
6121;SDS011;3091;51.506;7.672;2023-05-29T08:20:28;9.80;;;9.50;;
6121;SDS011;3091;51.506;7.672;2023-05-29T08:22:54;10.73;;;10.33;;
6121;SDS011;3091;51.506;7.672;2023-05-29T08:25:20;10.30;;;10.00;;
6121;SDS011;3091;51.506;7.672;2023-05-29T08:27:46;11.23;;;10.83;;
6121;SDS011;3091;51.506;7.672;2023-05-29T08:30:14;9.87;;;9.57;;
6121;SDS011;3091;51.506;7.672;2023-05-29T08:32:41;12.10;;;11.60;;
6121;SDS011;3091;51.506;7.672;2023-05-29T08:35:07;11.90;;;11.40;;
6121;SDS011;3091;51.506;7.672;2023-05-29T08:37:33;11.73;;;11.33;;
6121;SDS011;3091;51.506;7.672;2023-05-29T08:39:59;52.00;;;13.30;;
6121;SDS011;3091;51.506;7.672;2023-05-29T08:42:29;11.80;;;11.40;;
6121;SDS011;3091;51.506;7.672;2023-05-29T08:44:58;11.70;;;11.30;;
6121;SDS011;3091;51.506;7.672;2023-05-29T08:47:27;11.73;;;11.33;;
6121;SDS011;3091;51.506;7.672;2023-05-29T08:49:55;11.20;;;10.90;;
6121;SDS011;3091;51.506;7.672;2023-05-29T08:52:25;12.13;;;11.73;;
6121;SDS011;3091;51.506;7.672;2023-05-29T08:54:51;11.70;;;11.30;;
6121;SDS011;3091;51.506;7.672;2023-05-29T08:57:18;11.50;;;11.10;;
6121;SDS011;3091;51.506;7.672;2023-05-29T08:59:45;11.20;;;10.80;;
6121;SDS011;3091;51.506;7.672;2023-05-29T09:02:14;12.73;;;12.13;;
6121;SDS011;3091;51.506;7.672;2023-05-29T09:04:43;11.60;;;10.70;;
6121;SDS011;3091;51.506;7.672;2023-05-29T09:07:19;10.27;;;9.97;;
6121;SDS011;3091;51.506;7.672;2023-05-29T09:09:46;10.07;;;9.77;;
6121;SDS011;3091;51.506;7.672;2023-05-29T09:12:12;10.13;;;9.83;;
6121;SDS011;3091;51.506;7.672;2023-05-29T09:14:40;12.37;;;11.97;;
6121;SDS011;3091;51.506;7.672;2023-05-29T09:17:07;11.97;;;11.57;;
6121;SDS011;3091;51.506;7.672;2023-05-29T09:19:34;11.63;;;11.23;;
6121;SDS011;3091;51.506;7.672;2023-05-29T09:22:01;12.20;;;11.80;;
6121;SDS011;3091;51.506;7.672;2023-05-29T09:24:31;11.17;;;10.87;;
6121;SDS011;3091;51.506;7.672;2023-05-29T09:27:01;11.80;;;11.40;;
6121;SDS011;3091;51.506;7.672;2023-05-29T09:29:31;11.63;;;11.23;;
6121;SDS011;3091;51.506;7.672;2023-05-29T09:31:58;12.00;;;11.60;;
6121;SDS011;3091;51.506;7.672;2023-05-29T09:34:24;11.43;;;11.03;;
6121;SDS011;3091;51.506;7.672;2023-05-29T09:37:00;11.63;;;11.23;;
6121;SDS011;3091;51.506;7.672;2023-05-29T09:39:32;10.20;;;9.90;;
6121;SDS011;3091;51.506;7.672;2023-05-29T09:41:58;10.30;;;10.00;;
6121;SDS011;3091;51.506;7.672;2023-05-29T09:44:25;13.33;;;11.17;;
6121;SDS011;3091;51.506;7.672;2023-05-29T09:46:56;10.87;;;10.57;;
6121;SDS011;3091;51.506;7.672;2023-05-29T09:49:23;10.60;;;10.20;;
6121;SDS011;3091;51.506;7.672;2023-05-29T09:51:49;10.53;;;10.20;;
6121;SDS011;3091;51.506;7.672;2023-05-29T09:54:18;10.97;;;10.27;;
6121;SDS011;3091;51.506;7.672;2023-05-29T09:56:45;11.73;;;11.13;;
6121;SDS011;3091;51.506;7.672;2023-05-29T09:59:12;10.93;;;10.60;;
6121;SDS011;3091;51.506;7.672;2023-05-29T10:01:39;10.87;;;10.30;;
6121;SDS011;3091;51.506;7.672;2023-05-29T10:04:07;10.77;;;10.47;;
6121;SDS011;3091;51.506;7.672;2023-05-29T10:06:34;10.47;;;10.17;;
6121;SDS011;3091;51.506;7.672;2023-05-29T10:09:01;11.70;;;11.20;;
6121;SDS011;3091;51.506;7.672;2023-05-29T10:11:28;11.70;;;11.30;;
6121;SDS011;3091;51.506;7.672;2023-05-29T10:13:55;12.20;;;11.70;;
6121;SDS011;3091;51.506;7.672;2023-05-29T10:16:22;11.80;;;11.40;;
6121;SDS011;3091;51.506;7.672;2023-05-29T10:18:55;12.30;;;11.90;;
6121;SDS011;3091;51.506;7.672;2023-05-29T10:21:23;11.90;;;11.50;;
6121;SDS011;3091;51.506;7.672;2023-05-29T10:23:50;13.07;;;12.53;;
6121;SDS011;3091;51.506;7.672;2023-05-29T10:26:26;12.00;;;11.60;;
6121;SDS011;3091;51.506;7.672;2023-05-29T10:31:22;11.90;;;11.50;;
6121;SDS011;3091;51.506;7.672;2023-05-29T10:33:56;11.80;;;11.40;;
6121;SDS011;3091;51.506;7.672;2023-05-29T10:36:28;12.20;;;11.80;;
6121;SDS011;3091;51.506;7.672;2023-05-29T10:38:57;11.60;;;11.20;;
6121;SDS011;3091;51.506;7.672;2023-05-29T10:43:55;11.70;;;11.30;;
6121;SDS011;3091;51.506;7.672;2023-05-29T10:46:21;12.50;;;12.00;;
6121;SDS011;3091;51.506;7.672;2023-05-29T10:48:50;14.37;;;13.87;;
6121;SDS011;3091;51.506;7.672;2023-05-29T10:51:26;12.10;;;11.70;;
6121;SDS011;3091;51.506;7.672;2023-05-29T10:53:53;12.53;;;12.13;;
6121;SDS011;3091;51.506;7.672;2023-05-29T10:56:22;11.80;;;11.40;;
6121;SDS011;3091;51.506;7.672;2023-05-29T10:58:52;11.77;;;11.37;;
6121;SDS011;3091;51.506;7.672;2023-05-29T11:01:22;12.03;;;11.63;;
6121;SDS011;3091;51.506;7.672;2023-05-29T11:03:49;11.80;;;11.40;;
6121;SDS011;3091;51.506;7.672;2023-05-29T11:06:18;12.00;;;11.60;;
6121;SDS011;3091;51.506;7.672;2023-05-29T11:08:47;12.00;;;11.60;;
6121;SDS011;3091;51.506;7.672;2023-05-29T11:13:54;11.90;;;11.50;;
6121;SDS011;3091;51.506;7.672;2023-05-29T11:18:50;12.67;;;12.27;;
6121;SDS011;3091;51.506;7.672;2023-05-29T11:23:52;11.90;;;11.50;;
6121;SDS011;3091;51.506;7.672;2023-05-29T11:26:19;12.07;;;11.67;;
6121;SDS011;3091;51.506;7.672;2023-05-29T11:28:48;12.50;;;12.00;;
6121;SDS011;3091;51.506;7.672;2023-05-29T11:31:15;12.37;;;11.87;;
6121;SDS011;3091;51.506;7.672;2023-05-29T11:33:47;11.90;;;11.50;;
6121;SDS011;3091;51.506;7.672;2023-05-29T11:36:13;12.33;;;11.93;;
6121;SDS011;3091;51.506;7.672;2023-05-29T11:38:39;12.60;;;12.10;;
6121;SDS011;3091;51.506;7.672;2023-05-29T11:41:05;13.23;;;12.70;;
6121;SDS011;3091;51.506;7.672;2023-05-29T11:43:31;12.20;;;11.80;;
6121;SDS011;3091;51.506;7.672;2023-05-29T11:45:58;12.03;;;11.63;;
6121;SDS011;3091;51.506;7.672;2023-05-29T11:48:24;11.93;;;11.53;;
6121;SDS011;3091;51.506;7.672;2023-05-29T11:50:50;11.97;;;11.57;;
6121;SDS011;3091;51.506;7.672;2023-05-29T11:53:16;13.07;;;12.50;;
6121;SDS011;3091;51.506;7.672;2023-05-29T11:55:42;11.80;;;11.40;;
6121;SDS011;3091;51.506;7.672;2023-05-29T11:58:09;12.07;;;11.67;;
6121;SDS011;3091;51.506;7.672;2023-05-29T12:00:35;11.80;;;11.40;;
6121;SDS011;3091;51.506;7.672;2023-05-29T12:03:02;11.83;;;11.43;;
6121;SDS011;3091;51.506;7.672;2023-05-29T12:05:29;12.10;;;11.70;;
6121;SDS011;3091;51.506;7.672;2023-05-29T12:07:56;12.33;;;11.93;;
6121;SDS011;3091;51.506;7.672;2023-05-29T12:10:22;12.17;;;11.77;;
6121;SDS011;3091;51.506;7.672;2023-05-29T12:12:52;11.70;;;11.30;;
6121;SDS011;3091;51.506;7.672;2023-05-29T12:15:18;11.90;;;11.50;;
6121;SDS011;3091;51.506;7.672;2023-05-29T12:17:44;11.93;;;11.53;;
6121;SDS011;3091;51.506;7.672;2023-05-29T12:20:11;12.70;;;12.30;;
6121;SDS011;3091;51.506;7.672;2023-05-29T12:22:39;11.70;;;11.30;;
6121;SDS011;3091;51.506;7.672;2023-05-29T12:27:36;11.97;;;11.57;;
6121;SDS011;3091;51.506;7.672;2023-05-29T12:30:10;12.10;;;11.70;;
6121;SDS011;3091;51.506;7.672;2023-05-29T12:32:38;11.73;;;11.33;;
6121;SDS011;3091;51.506;7.672;2023-05-29T12:35:18;11.90;;;11.50;;
6121;SDS011;3091;51.506;7.672;2023-05-29T12:37:44;11.80;;;11.40;;
6121;SDS011;3091;51.506;7.672;2023-05-29T12:40:18;11.60;;;11.20;;
6121;SDS011;3091;51.506;7.672;2023-05-29T12:42:48;19.63;;;12.17;;
6121;SDS011;3091;51.506;7.672;2023-05-29T12:45:14;12.07;;;11.67;;
6121;SDS011;3091;51.506;7.672;2023-05-29T12:47:53;11.80;;;11.40;;
6121;SDS011;3091;51.506;7.672;2023-05-29T12:52:48;12.60;;;12.20;;
6121;SDS011;3091;51.506;7.672;2023-05-29T12:55:18;12.00;;;11.60;;
6121;SDS011;3091;51.506;7.672;2023-05-29T12:57:44;12.47;;;11.97;;
6121;SDS011;3091;51.506;7.672;2023-05-29T13:00:11;12.10;;;11.70;;
6121;SDS011;3091;51.506;7.672;2023-05-29T13:02:37;13.37;;;12.87;;
6121;SDS011;3091;51.506;7.672;2023-05-29T13:05:03;12.27;;;11.87;;
6121;SDS011;3091;51.506;7.672;2023-05-29T13:07:30;12.10;;;11.70;;
6121;SDS011;3091;51.506;7.672;2023-05-29T13:09:57;12.30;;;11.90;;
6121;SDS011;3091;51.506;7.672;2023-05-29T13:12:23;12.10;;;11.70;;
6121;SDS011;3091;51.506;7.672;2023-05-29T13:14:51;12.40;;;11.93;;
6121;SDS011;3091;51.506;7.672;2023-05-29T13:17:17;12.00;;;11.60;;
6121;SDS011;3091;51.506;7.672;2023-05-29T13:19:43;12.40;;;11.87;;
6121;SDS011;3091;51.506;7.672;2023-05-29T13:22:12;12.10;;;11.70;;
6121;SDS011;3091;51.506;7.672;2023-05-29T13:24:37;12.27;;;11.87;;
6121;SDS011;3091;51.506;7.672;2023-05-29T13:27:06;12.03;;;11.63;;
6121;SDS011;3091;51.506;7.672;2023-05-29T13:29:32;12.43;;;12.03;;
6121;SDS011;3091;51.506;7.672;2023-05-29T13:31:58;12.03;;;11.63;;
6121;SDS011;3091;51.506;7.672;2023-05-29T13:34:24;12.53;;;12.13;;
6121;SDS011;3091;51.506;7.672;2023-05-29T13:36:54;12.63;;;12.23;;
6121;SDS011;3091;51.506;7.672;2023-05-29T13:39:20;12.17;;;11.77;;
6121;SDS011;3091;51.506;7.672;2023-05-29T13:41:46;11.90;;;11.50;;
6121;SDS011;3091;51.506;7.672;2023-05-29T13:44:12;12.03;;;11.63;;
6121;SDS011;3091;51.506;7.672;2023-05-29T13:46:38;11.70;;;11.30;;
6121;SDS011;3091;51.506;7.672;2023-05-29T13:49:04;11.57;;;11.17;;
6121;SDS011;3091;51.506;7.672;2023-05-29T13:51:32;12.23;;;11.83;;
6121;SDS011;3091;51.506;7.672;2023-05-29T13:53:58;12.00;;;11.60;;
6121;SDS011;3091;51.506;7.672;2023-05-29T13:56:24;13.70;;;12.90;;
6121;SDS011;3091;51.506;7.672;2023-05-29T13:58:52;12.20;;;11.80;;
6121;SDS011;3091;51.506;7.672;2023-05-29T14:01:18;13.00;;;12.50;;
6121;SDS011;3091;51.506;7.672;2023-05-29T14:03:45;11.87;;;11.47;;
6121;SDS011;3091;51.506;7.672;2023-05-29T14:06:11;12.37;;;11.97;;
6121;SDS011;3091;51.506;7.672;2023-05-29T14:08:37;12.20;;;11.80;;
6121;SDS011;3091;51.506;7.672;2023-05-29T14:11:03;12.20;;;11.80;;
6121;SDS011;3091;51.506;7.672;2023-05-29T14:13:31;11.93;;;11.53;;
6121;SDS011;3091;51.506;7.672;2023-05-29T14:15:57;12.00;;;11.60;;
6121;SDS011;3091;51.506;7.672;2023-05-29T14:18:23;12.77;;;12.37;;
6121;SDS011;3091;51.506;7.672;2023-05-29T14:20:49;13.23;;;12.73;;
6121;SDS011;3091;51.506;7.672;2023-05-29T14:23:18;12.33;;;11.93;;
6121;SDS011;3091;51.506;7.672;2023-05-29T14:25:45;12.20;;;11.80;;
6121;SDS011;3091;51.506;7.672;2023-05-29T14:28:11;12.40;;;12.00;;
6121;SDS011;3091;51.506;7.672;2023-05-29T14:30:37;11.90;;;11.50;;
6121;SDS011;3091;51.506;7.672;2023-05-29T14:33:03;12.47;;;12.07;;
6121;SDS011;3091;51.506;7.672;2023-05-29T14:35:31;12.00;;;11.60;;
6121;SDS011;3091;51.506;7.672;2023-05-29T14:37:57;12.40;;;12.00;;
6121;SDS011;3091;51.506;7.672;2023-05-29T14:40:23;12.80;;;12.30;;
6121;SDS011;3091;51.506;7.672;2023-05-29T14:42:52;13.50;;;12.90;;
6121;SDS011;3091;51.506;7.672;2023-05-29T14:45:18;12.50;;;12.10;;
6121;SDS011;3091;51.506;7.672;2023-05-29T14:47:44;13.00;;;12.50;;
6121;SDS011;3091;51.506;7.672;2023-05-29T14:50:10;12.60;;;12.20;;
6121;SDS011;3091;51.506;7.672;2023-05-29T14:52:36;12.37;;;11.97;;
6121;SDS011;3091;51.506;7.672;2023-05-29T14:55:06;13.10;;;12.70;;
6121;SDS011;3091;51.506;7.672;2023-05-29T14:57:32;12.20;;;11.80;;
6121;SDS011;3091;51.506;7.672;2023-05-29T14:59:59;12.53;;;12.13;;
6121;SDS011;3091;51.506;7.672;2023-05-29T15:02:28;12.63;;;12.23;;
6121;SDS011;3091;51.506;7.672;2023-05-29T15:04:56;13.10;;;12.60;;
6121;SDS011;3091;51.506;7.672;2023-05-29T15:07:22;12.73;;;12.33;;
6121;SDS011;3091;51.506;7.672;2023-05-29T15:09:48;12.80;;;12.40;;
6121;SDS011;3091;51.506;7.672;2023-05-29T15:12:14;12.70;;;12.20;;
6121;SDS011;3091;51.506;7.672;2023-05-29T15:14:40;12.40;;;12.00;;